createdAt,value
2018-07-01T00:01:22.720Z,15.20
2018-07-01T00:03:51.758Z,15.10
2018-07-01T00:06:20.805Z,15.00
2018-07-01T00:08:50.385Z,14.80
2018-07-01T00:11:19.358Z,14.80
2018-07-01T00:13:48.339Z,14.60
2018-07-01T00:16:17.972Z,14.80
2018-07-01T00:18:46.963Z,14.90
2018-07-01T00:21:15.959Z,14.90
2018-07-01T00:23:46.166Z,14.70
2018-07-01T00:26:15.157Z,14.70
2018-07-01T00:28:44.166Z,14.40
2018-07-01T00:31:13.677Z,14.20
2018-07-01T00:33:42.650Z,14.20
2018-07-01T00:36:12.254Z,14.20
2018-07-01T00:38:41.859Z,14.30
2018-07-01T00:41:11.702Z,14.40
2018-07-01T00:43:40.732Z,14.50
2018-07-01T00:46:10.365Z,14.60
2018-07-01T00:48:39.319Z,14.50
2018-07-01T00:51:08.459Z,14.50
2018-07-01T00:53:39.414Z,14.50
2018-07-01T00:56:08.498Z,14.60
2018-07-01T00:58:41.253Z,14.60
2018-07-01T01:01:10.229Z,14.50
2018-07-01T01:03:39.233Z,14.50
2018-07-01T01:06:09.503Z,14.40
2018-07-01T01:11:08.963Z,14.40
2018-07-01T01:13:37.963Z,14.40
2018-07-01T01:16:09.698Z,14.40
2018-07-01T01:18:39.536Z,14.40
2018-07-01T01:21:09.095Z,14.30
2018-07-01T01:23:38.071Z,14.20
2018-07-01T01:26:07.157Z,14.20
2018-07-01T01:28:36.122Z,14.20
2018-07-01T01:31:05.149Z,14.10
2018-07-01T01:33:34.113Z,13.90
2018-07-01T01:36:03.167Z,13.80
2018-07-01T01:38:34.307Z,13.70
2018-07-01T01:41:10.139Z,13.80
2018-07-01T01:43:43.769Z,13.70
2018-07-01T01:46:18.898Z,13.60
2018-07-01T01:49:09.682Z,13.60
2018-07-01T01:52:41.886Z,13.50
2018-07-01T01:55:15.607Z,13.50
2018-07-01T01:58:05.467Z,13.40
2018-07-01T02:00:39.993Z,13.60
2018-07-01T02:03:16.652Z,13.60
2018-07-01T02:06:05.134Z,13.50
2018-07-01T02:08:37.779Z,13.50
2018-07-01T02:11:06.834Z,13.50
2018-07-01T02:13:38.505Z,13.50
2018-07-01T02:16:14.606Z,13.60
2018-07-01T02:18:43.604Z,13.60
2018-07-01T02:21:12.659Z,13.40
2018-07-01T02:23:51.737Z,13.30
2018-07-01T02:26:21.357Z,13.20
2018-07-01T02:28:50.474Z,13.10
2018-07-01T02:31:19.505Z,13.10
2018-07-01T02:33:48.491Z,13.20
2018-07-01T02:36:18.012Z,13.10
2018-07-01T02:38:47.063Z,13.20
2018-07-01T02:41:16.122Z,13.30
2018-07-01T02:43:45.092Z,13.20
2018-07-01T02:46:14.081Z,13.10
2018-07-01T02:48:43.055Z,12.90
2018-07-01T02:51:12.673Z,12.70
2018-07-01T02:53:41.689Z,12.70
2018-07-01T02:56:12.146Z,12.80
2018-07-01T02:58:41.092Z,12.70
2018-07-01T03:01:10.096Z,12.80
2018-07-01T03:03:39.161Z,12.60
2018-07-01T03:06:08.113Z,12.70
2018-07-01T03:08:37.990Z,12.80
2018-07-01T03:13:35.693Z,13.00
2018-07-01T03:16:04.643Z,12.90
2018-07-01T03:18:33.635Z,12.80
2018-07-01T03:21:02.630Z,12.80
2018-07-01T03:23:32.762Z,12.90
2018-07-01T03:26:01.750Z,12.80
2018-07-01T03:28:30.729Z,12.60
2018-07-01T03:30:59.683Z,12.40
2018-07-01T03:33:28.739Z,12.50
2018-07-01T03:35:58.742Z,12.50
2018-07-01T03:38:27.782Z,12.40
2018-07-01T03:40:57.327Z,12.50
2018-07-01T03:43:26.830Z,12.60
2018-07-01T03:45:55.805Z,12.50
2018-07-01T03:48:25.510Z,12.50
2018-07-01T03:50:54.466Z,12.50
2018-07-01T03:53:23.464Z,12.50
2018-07-01T03:55:52.419Z,12.50
2018-07-01T03:58:21.475Z,12.50
2018-07-01T04:00:52.830Z,12.70
2018-07-01T04:03:21.839Z,13.00
2018-07-01T04:05:50.794Z,13.10
2018-07-01T04:08:20.009Z,13.20
2018-07-01T04:10:49.003Z,13.30
2018-07-01T04:13:18.522Z,13.40
2018-07-01T04:15:47.535Z,13.30
2018-07-01T04:18:18.806Z,13.40
2018-07-01T04:20:47.787Z,13.50
2018-07-01T04:23:17.265Z,13.60
2018-07-01T04:25:46.246Z,13.70
2018-07-01T04:28:18.176Z,13.90
2018-07-01T04:30:47.230Z,14.00
2018-07-01T04:33:17.807Z,14.10
2018-07-01T04:35:47.388Z,14.00
2018-07-01T04:38:17.625Z,13.90
2018-07-01T04:40:46.851Z,14.00
2018-07-01T04:43:16.121Z,14.10
2018-07-01T04:45:45.538Z,14.40
2018-07-01T04:48:14.785Z,14.70
2018-07-01T04:50:44.199Z,14.80
2018-07-01T04:53:14.424Z,14.90
2018-07-01T04:55:43.585Z,14.90
2018-07-01T04:58:13.367Z,14.90
2018-07-01T05:00:46.466Z,15.10
2018-07-01T05:03:18.530Z,15.20
2018-07-01T05:05:47.679Z,15.40
2018-07-01T05:08:17.923Z,15.60
2018-07-01T05:10:47.946Z,15.80
2018-07-01T05:13:17.019Z,15.80
2018-07-01T05:15:45.963Z,15.90
2018-07-01T05:18:16.102Z,16.10
2018-07-01T05:20:45.970Z,16.30
2018-07-01T05:23:15.009Z,16.40
2018-07-01T05:25:44.213Z,16.50
2018-07-01T05:28:13.626Z,16.60
2018-07-01T05:30:45.913Z,16.70
2018-07-01T05:33:16.026Z,16.90
2018-07-01T05:35:45.787Z,17.10
2018-07-01T05:38:14.778Z,17.20
2018-07-01T05:40:43.747Z,17.30
2018-07-01T05:43:12.747Z,17.40
2018-07-01T05:48:10.917Z,17.60
2018-07-01T05:50:42.794Z,17.70
2018-07-01T05:53:11.871Z,17.80
2018-07-01T05:55:40.934Z,17.90
2018-07-01T05:58:09.981Z,18.00
2018-07-01T06:00:38.971Z,18.00
2018-07-01T06:03:12.051Z,18.10
2018-07-01T06:05:41.144Z,18.20
2018-07-01T06:08:10.101Z,18.20
2018-07-01T06:10:39.203Z,18.20
2018-07-01T06:13:08.702Z,18.30
2018-07-01T06:15:39.453Z,18.40
2018-07-01T06:18:08.434Z,18.50
2018-07-01T06:20:37.506Z,18.50
2018-07-01T06:23:07.749Z,18.50
2018-07-01T06:25:36.811Z,18.40
2018-07-01T06:28:09.660Z,18.50
2018-07-01T06:30:40.338Z,18.60
2018-07-01T06:33:09.367Z,18.80
2018-07-01T06:35:38.637Z,19.00
2018-07-01T06:38:07.757Z,19.10
2018-07-01T06:40:36.825Z,19.10
2018-07-01T06:43:05.788Z,19.40
2018-07-01T06:45:35.952Z,19.50
2018-07-01T06:48:05.334Z,19.70
2018-07-01T06:50:35.510Z,19.80
2018-07-01T06:53:05.099Z,19.90
2018-07-01T06:55:34.497Z,19.90
2018-07-01T06:58:07.249Z,20.00
2018-07-01T07:00:36.214Z,20.10
2018-07-01T07:03:05.531Z,20.10
2018-07-01T07:05:34.526Z,20.00
2018-07-01T07:08:03.612Z,20.20
2018-07-01T07:10:32.636Z,20.40
2018-07-01T07:13:01.848Z,20.50
2018-07-01T07:15:31.039Z,20.50
2018-07-01T07:18:01.369Z,20.40
2018-07-01T07:20:31.034Z,20.30
2018-07-01T07:23:00.256Z,20.20
2018-07-01T07:25:32.127Z,20.10
2018-07-01T07:28:01.118Z,20.10
2018-07-01T07:30:30.906Z,20.30
2018-07-01T07:33:00.082Z,20.40
2018-07-01T07:35:29.323Z,20.40
2018-07-01T07:37:58.893Z,20.50
2018-07-01T07:40:28.175Z,20.50
2018-07-01T07:42:57.302Z,20.60
2018-07-01T07:45:29.021Z,20.90
2018-07-01T07:47:58.234Z,21.30
2018-07-01T07:50:27.287Z,22.20
2018-07-01T07:52:56.438Z,23.00
2018-07-01T07:55:25.976Z,23.30
2018-07-01T07:57:54.923Z,24.20
2018-07-01T08:00:24.607Z,24.80
2018-07-01T08:02:54.811Z,26.30
2018-07-01T08:05:27.114Z,28.00
2018-07-01T08:07:56.557Z,29.30
2018-07-01T08:10:26.350Z,30.20
2018-07-01T08:15:26.795Z,32.20
2018-07-01T08:17:57.475Z,32.60
2018-07-01T08:20:26.547Z,33.00
2018-07-01T08:22:55.710Z,33.20
2018-07-01T08:25:25.505Z,33.70
2018-07-01T08:30:25.844Z,32.70
2018-07-01T08:32:57.381Z,31.30
2018-07-01T08:35:26.745Z,31.20
2018-07-01T08:37:58.686Z,30.00
2018-07-01T08:40:28.843Z,29.40
2018-07-01T08:42:59.291Z,27.80
2018-07-01T08:45:29.007Z,27.00
2018-07-01T08:47:58.158Z,26.20
2018-07-01T08:50:28.060Z,25.10
2018-07-01T08:52:58.921Z,24.70
2018-07-01T08:55:29.549Z,24.00
2018-07-01T08:57:59.073Z,23.80
2018-07-01T09:00:28.748Z,23.50
2018-07-01T09:02:58.944Z,23.40
2018-07-01T09:05:27.940Z,23.50
2018-07-01T09:07:56.987Z,23.10
2018-07-01T09:10:29.871Z,23.10
2018-07-01T09:13:01.439Z,23.20
2018-07-01T09:15:30.986Z,23.10
2018-07-01T09:18:02.599Z,23.00
2018-07-01T09:20:32.278Z,23.00
2018-07-01T09:23:01.359Z,22.80
2018-07-01T09:25:30.333Z,22.80
2018-07-01T09:27:59.327Z,22.80
2018-07-01T09:30:28.377Z,22.70
2018-07-01T09:32:58.292Z,23.00
2018-07-01T09:35:27.257Z,23.20
2018-07-01T09:37:57.049Z,23.30
2018-07-01T09:40:26.138Z,23.70
2018-07-01T09:42:55.793Z,23.90
2018-07-01T09:45:25.675Z,24.00
2018-07-01T09:47:56.164Z,24.20
2018-07-01T09:50:25.251Z,24.60
2018-07-01T09:53:16.053Z,25.70
2018-07-01T09:55:45.411Z,26.60
2018-07-01T09:58:14.396Z,26.30
2018-07-01T10:00:43.427Z,25.70
2018-07-01T10:03:12.461Z,25.80
2018-07-01T10:05:41.437Z,26.40
2018-07-01T10:08:10.391Z,26.90
2018-07-01T10:10:39.382Z,26.90
2018-07-01T10:15:38.713Z,27.10
2018-07-01T10:18:07.760Z,27.00
2018-07-01T10:20:36.859Z,26.80
2018-07-01T10:23:06.564Z,26.40
2018-07-01T10:25:35.566Z,26.40
2018-07-01T10:28:04.501Z,26.60
2018-07-01T10:30:33.487Z,26.70
2018-07-01T10:33:02.547Z,28.10
2018-07-01T10:35:31.509Z,29.40
2018-07-01T10:38:01.038Z,30.20
2018-07-01T10:40:30.663Z,30.60
2018-07-01T10:43:00.499Z,29.70
2018-07-01T10:45:30.506Z,27.90
2018-07-01T10:47:59.496Z,26.00
2018-07-01T10:50:28.462Z,25.20
2018-07-01T10:52:58.880Z,24.60
2018-07-01T10:55:27.869Z,23.80
2018-07-01T10:57:56.881Z,23.30
2018-07-01T11:00:25.975Z,22.90
2018-07-01T11:02:55.711Z,22.70
2018-07-01T11:05:25.190Z,22.70
2018-07-01T11:07:55.000Z,22.70
2018-07-01T11:10:23.980Z,22.60
2018-07-01T11:12:55.170Z,22.60
2018-07-01T11:15:24.317Z,22.50
2018-07-01T11:17:53.295Z,22.50
2018-07-01T11:20:22.340Z,22.40
2018-07-01T11:22:52.360Z,22.70
2018-07-01T11:25:21.314Z,22.70
2018-07-01T11:27:50.292Z,22.60
2018-07-01T11:30:19.734Z,22.50
2018-07-01T11:32:49.257Z,22.60
2018-07-01T11:35:18.247Z,22.40
2018-07-01T11:37:48.302Z,22.20
2018-07-01T11:40:17.323Z,22.30
2018-07-01T11:42:53.169Z,22.30
2018-07-01T11:45:25.913Z,22.50
2018-07-01T11:50:26.311Z,22.60
2018-07-01T11:52:55.350Z,22.50
2018-07-01T11:55:24.382Z,22.40
2018-07-01T11:57:53.385Z,22.50
2018-07-01T12:00:22.373Z,22.50
2018-07-01T12:02:51.365Z,22.50
2018-07-01T12:05:20.365Z,22.50
2018-07-01T12:07:49.378Z,22.50
2018-07-01T12:10:18.832Z,22.40
2018-07-01T12:12:47.844Z,22.50
2018-07-01T12:15:16.786Z,22.60
2018-07-01T12:17:45.761Z,22.70
2018-07-01T12:20:16.156Z,22.50
2018-07-01T12:22:45.215Z,22.40
2018-07-01T12:25:14.243Z,22.40
2018-07-01T12:27:43.763Z,22.40
2018-07-01T12:30:13.320Z,22.50
2018-07-01T12:32:43.087Z,22.60
2018-07-01T12:35:12.387Z,22.70
2018-07-01T12:37:41.950Z,22.80
2018-07-01T12:40:12.186Z,22.70
2018-07-01T12:42:42.087Z,22.70
2018-07-01T12:45:11.077Z,22.80
2018-07-01T12:47:40.120Z,22.90
2018-07-01T12:50:09.051Z,22.80
2018-07-01T12:52:38.124Z,22.60
2018-07-01T12:55:07.107Z,22.60
2018-07-01T12:57:40.711Z,22.60
2018-07-01T13:00:09.863Z,22.50
2018-07-01T13:02:38.879Z,22.70
2018-07-01T13:05:07.870Z,22.80
2018-07-01T13:07:39.638Z,22.70
2018-07-01T13:10:09.119Z,22.70
2018-07-01T13:12:38.174Z,22.70
2018-07-01T13:15:07.215Z,22.70
2018-07-01T13:17:36.220Z,22.80
2018-07-01T13:20:06.134Z,22.80
2018-07-01T13:22:35.160Z,22.80
2018-07-01T13:25:05.519Z,22.80
2018-07-01T13:27:34.470Z,23.00
2018-07-01T13:30:03.484Z,23.00
2018-07-01T13:32:32.446Z,23.00
2018-07-01T13:35:02.095Z,23.00
2018-07-01T13:37:32.291Z,23.10
2018-07-01T13:40:01.263Z,23.10
2018-07-01T13:42:30.254Z,23.10
2018-07-01T13:44:59.292Z,23.10
2018-07-01T13:47:28.252Z,23.20
2018-07-01T13:49:57.269Z,23.10
2018-07-01T13:52:26.255Z,23.10
2018-07-01T13:55:03.556Z,23.00
2018-07-01T13:57:33.378Z,23.00
2018-07-01T14:00:02.432Z,23.10
2018-07-01T14:02:36.305Z,23.00
2018-07-01T14:05:06.611Z,23.00
2018-07-01T14:07:35.588Z,23.00
2018-07-01T14:10:05.305Z,23.10
2018-07-01T14:12:39.508Z,23.00
2018-07-01T14:15:08.730Z,23.00
2018-07-01T14:17:38.383Z,23.00
2018-07-01T14:20:09.275Z,23.00
2018-07-01T14:22:41.086Z,23.00
2018-07-01T14:25:13.475Z,23.00
2018-07-01T14:27:46.048Z,23.10
2018-07-01T14:30:16.222Z,23.10
2018-07-01T14:32:50.127Z,23.10
2018-07-01T14:35:19.126Z,23.20
2018-07-01T14:37:48.124Z,23.20
2018-07-01T14:40:17.104Z,23.00
2018-07-01T14:42:46.122Z,23.00
2018-07-01T14:45:15.996Z,23.10
2018-07-01T14:47:44.938Z,23.20
2018-07-01T14:50:13.899Z,23.10
2018-07-01T14:52:43.254Z,23.20
2018-07-01T14:55:12.242Z,23.10
2018-07-01T14:57:41.968Z,23.10
2018-07-01T15:00:11.219Z,23.10
2018-07-01T15:02:40.241Z,23.10
2018-07-01T15:05:09.972Z,23.10
2018-07-01T15:07:40.226Z,23.10
2018-07-01T15:10:09.217Z,23.10
2018-07-01T15:12:38.628Z,23.20
2018-07-01T15:15:07.857Z,23.20
2018-07-01T15:17:37.668Z,23.20
2018-07-01T15:20:06.646Z,23.10
2018-07-01T15:25:04.217Z,23.30
2018-07-01T15:27:33.179Z,23.20
2018-07-01T15:30:02.321Z,23.10
2018-07-01T15:32:31.279Z,23.00
2018-07-01T15:35:00.338Z,23.20
2018-07-01T15:37:30.075Z,23.20
2018-07-01T15:39:59.466Z,23.20
2018-07-01T15:42:28.430Z,23.20
2018-07-01T15:44:57.438Z,23.10
2018-07-01T15:47:27.723Z,23.10
2018-07-01T15:49:56.687Z,23.10
2018-07-01T15:52:25.833Z,23.10
2018-07-01T15:54:55.400Z,22.90
2018-07-01T15:57:24.332Z,22.90
2018-07-01T15:59:54.085Z,22.90
2018-07-01T16:02:23.116Z,23.00
2018-07-01T16:04:52.072Z,23.10
2018-07-01T16:07:21.059Z,23.20
2018-07-01T16:09:50.231Z,23.00
2018-07-01T16:12:19.386Z,23.00
2018-07-01T16:14:49.228Z,23.10
2018-07-01T16:17:18.188Z,23.10
2018-07-01T16:19:47.200Z,23.10
2018-07-01T16:22:16.202Z,23.10
2018-07-01T16:24:50.689Z,23.20
2018-07-01T16:27:26.611Z,23.20
2018-07-01T16:29:57.471Z,23.10
2018-07-01T16:32:27.819Z,23.10
2018-07-01T16:34:56.786Z,23.10
2018-07-01T16:37:25.812Z,23.10
2018-07-01T16:39:54.964Z,23.20
2018-07-01T16:42:23.913Z,23.20
2018-07-01T16:44:54.110Z,23.20
2018-07-01T16:47:24.638Z,23.20
2018-07-01T16:49:54.564Z,23.10
2018-07-01T16:52:26.954Z,23.20
2018-07-01T16:55:00.051Z,23.10
2018-07-01T16:57:30.515Z,23.10
2018-07-01T16:59:59.481Z,23.10
2018-07-01T17:02:28.522Z,23.20
2018-07-01T17:05:01.163Z,23.10
2018-07-01T17:07:30.467Z,23.10
2018-07-01T17:09:59.775Z,23.00
2018-07-01T17:12:30.195Z,23.00
2018-07-01T17:18:09.350Z,22.80
2018-07-01T17:20:39.200Z,22.90
2018-07-01T17:23:08.907Z,23.00
2018-07-01T17:25:44.334Z,23.00
2018-07-01T17:28:13.286Z,23.00
2018-07-01T17:30:42.253Z,22.90
2018-07-01T17:33:16.592Z,22.80
2018-07-01T17:35:46.323Z,22.90
2018-07-01T17:38:15.325Z,22.90
2018-07-01T17:40:44.299Z,22.80
2018-07-01T17:43:14.342Z,22.80
2018-07-01T17:45:43.332Z,22.70
2018-07-01T17:48:12.322Z,22.70
2018-07-01T17:50:43.578Z,22.80
2018-07-01T17:53:25.312Z,22.80
2018-07-01T17:55:54.697Z,22.80
2018-07-01T17:58:24.171Z,22.80
2018-07-01T18:00:53.210Z,22.60
2018-07-01T18:03:22.211Z,22.50
2018-07-01T18:08:20.588Z,22.50
2018-07-01T18:10:49.636Z,22.40
2018-07-01T18:13:19.708Z,22.30
2018-07-01T18:15:50.092Z,22.30
2018-07-01T18:18:19.085Z,22.20
2018-07-01T18:20:48.107Z,22.20
2018-07-01T18:23:35.850Z,22.30
2018-07-01T18:25:47.028Z,22.30
2018-07-01T18:28:26.506Z,22.30
2018-07-01T18:30:45.023Z,22.30
2018-07-01T18:33:14.066Z,22.30
2018-07-01T18:35:43.775Z,22.20
2018-07-01T18:38:12.800Z,22.20
2018-07-01T18:40:41.810Z,22.20
2018-07-01T18:43:10.796Z,22.10
2018-07-01T18:45:41.122Z,22.10
2018-07-01T18:48:10.872Z,22.10
2018-07-01T18:50:41.076Z,22.10
2018-07-01T18:53:10.087Z,22.00
2018-07-01T18:55:39.047Z,22.00
2018-07-01T18:58:08.052Z,22.00
2018-07-01T19:00:37.103Z,22.00
2018-07-01T19:03:06.112Z,22.00
2018-07-01T19:05:36.983Z,22.00
2018-07-01T19:08:10.563Z,21.90
2018-07-01T19:10:39.650Z,21.80
2018-07-01T19:13:08.732Z,21.80
2018-07-01T19:15:37.712Z,21.70
2018-07-01T19:18:07.826Z,21.70
2018-07-01T19:20:37.256Z,21.60
2018-07-01T19:23:06.250Z,21.50
2018-07-01T19:25:36.069Z,21.40
2018-07-01T19:28:05.216Z,21.30
2018-07-01T19:30:34.204Z,21.20
2018-07-01T19:33:04.625Z,21.10
2018-07-01T19:35:33.674Z,21.00
2018-07-01T19:38:02.759Z,20.90
2018-07-01T19:40:32.473Z,20.80
2018-07-01T19:43:01.582Z,20.70
2018-07-01T19:45:33.206Z,20.60
2018-07-01T19:48:02.231Z,20.50
2018-07-01T19:50:31.468Z,20.50
2018-07-01T19:53:01.955Z,20.40
2018-07-01T19:55:37.209Z,20.40
2018-07-01T19:58:06.365Z,20.30
2018-07-01T20:03:13.911Z,20.30
2018-07-01T20:05:42.977Z,20.20
2018-07-01T20:08:12.243Z,20.10
2018-07-01T20:10:42.647Z,20.00
2018-07-01T20:13:11.623Z,20.00
2018-07-01T20:15:40.569Z,19.80
2018-07-01T20:18:09.551Z,19.80
2018-07-01T20:20:38.734Z,19.80
2018-07-01T20:23:12.700Z,19.70
2018-07-01T20:28:15.963Z,19.70
2018-07-01T20:30:45.014Z,19.80
2018-07-01T20:33:14.071Z,19.70
2018-07-01T20:35:44.200Z,19.40
2018-07-01T20:38:15.538Z,19.20
2018-07-01T20:40:45.391Z,19.00
2018-07-01T20:43:14.919Z,18.90
2018-07-01T20:45:44.168Z,18.80
2018-07-01T20:48:14.067Z,18.60
2018-07-01T20:50:43.693Z,18.50
2018-07-01T20:53:14.100Z,18.40
2018-07-01T20:55:45.761Z,18.30
2018-07-01T20:58:15.123Z,18.20
2018-07-01T21:00:44.325Z,18.10
2018-07-01T21:03:13.613Z,18.00
2018-07-01T21:05:42.965Z,18.00
2018-07-01T21:08:12.157Z,17.90
2018-07-01T21:10:42.437Z,17.90
2018-07-01T21:13:12.147Z,17.80
2018-07-01T21:15:41.614Z,17.80
2018-07-01T21:18:11.168Z,17.60
2018-07-01T21:20:40.369Z,17.50
2018-07-01T21:23:09.794Z,17.30
2018-07-01T21:28:10.846Z,17.00
2018-07-01T21:42:15.376Z,16.80
2018-07-01T21:44:47.335Z,16.80
2018-07-01T21:47:16.864Z,16.80
2018-07-01T21:49:45.922Z,16.70
2018-07-01T21:52:14.899Z,16.60
2018-07-01T21:54:44.644Z,16.50
2018-07-01T21:57:13.613Z,16.50
2018-07-01T21:59:43.449Z,16.40
2018-07-01T22:02:13.707Z,15.90
2018-07-01T22:04:44.366Z,15.80
2018-07-01T22:07:15.231Z,15.70
2018-07-01T22:09:47.197Z,15.90
2018-07-01T22:12:27.538Z,15.90
2018-07-01T22:15:14.083Z,15.80
2018-07-01T22:17:43.819Z,15.80
2018-07-01T22:20:14.913Z,15.80
2018-07-01T22:22:43.937Z,15.70
2018-07-01T22:25:13.954Z,15.70
2018-07-01T22:27:51.697Z,15.70
2018-07-01T22:30:22.197Z,15.60
2018-07-01T22:32:51.170Z,15.50
2018-07-01T22:35:20.901Z,15.40
2018-07-01T22:37:50.288Z,15.30
2018-07-01T22:40:19.793Z,15.40
2018-07-01T22:42:49.843Z,15.30
2018-07-01T22:45:19.594Z,15.20
2018-07-01T22:47:48.544Z,15.10
2018-07-01T22:50:17.582Z,15.10
2018-07-01T22:52:46.616Z,15.00
2018-07-01T22:55:16.126Z,15.00
2018-07-01T22:57:45.105Z,15.00
2018-07-01T23:00:16.522Z,15.00
2018-07-01T23:02:59.351Z,14.70
2018-07-01T23:05:28.476Z,14.80
2018-07-01T23:07:57.440Z,14.80
2018-07-01T23:10:28.009Z,14.70
2018-07-01T23:12:57.673Z,14.70
2018-07-01T23:15:29.822Z,14.60
2018-07-01T23:17:58.855Z,14.60
2018-07-01T23:20:28.246Z,14.70
2018-07-01T23:22:57.292Z,14.80
2018-07-01T23:25:27.569Z,14.70
2018-07-01T23:27:57.499Z,14.50
2018-07-01T23:30:26.684Z,14.60
2018-07-01T23:32:56.086Z,14.50
2018-07-01T23:35:28.124Z,14.40
2018-07-01T23:37:58.422Z,14.40
2018-07-01T23:40:27.462Z,14.40
2018-07-01T23:45:25.164Z,14.40
2018-07-01T23:47:54.177Z,14.30
2018-07-01T23:50:23.598Z,14.20
2018-07-01T23:52:53.220Z,14.20
2018-07-01T23:55:22.230Z,14.20
2018-07-01T23:57:51.199Z,14.00
